sensor_id;sensor_type;location;lat;lon;timestamp;pressure;altitude;pressure_sealevel;temperature;humidity
46087;BME280;31824;49.648;8.640;2023-05-21T00:02:49;100014.28;;;15.26;100.00
46087;BME280;31824;49.648;8.640;2023-05-21T00:05:53;100018.22;;;15.45;100.00
46087;BME280;31824;49.648;8.640;2023-05-21T00:08:55;100010.91;;;15.54;100.00
46087;BME280;31824;49.648;8.640;2023-05-21T00:11:57;100012.56;;;15.52;100.00
46087;BME280;31824;49.648;8.640;2023-05-21T00:14:59;100009.38;;;15.44;100.00
46087;BME280;31824;49.648;8.640;2023-05-21T00:18:02;100005.56;;;15.41;100.00
46087;BME280;31824;49.648;8.640;2023-05-21T00:21:05;100004.13;;;15.32;100.00
46087;BME280;31824;49.648;8.640;2023-05-21T00:24:08;100001.38;;;15.31;100.00
46087;BME280;31824;49.648;8.640;2023-05-21T00:27:13;99998.41;;;15.26;100.00
46087;BME280;31824;49.648;8.640;2023-05-21T00:30:15;99998.06;;;15.22;100.00
46087;BME280;31824;49.648;8.640;2023-05-21T00:33:17;99994.06;;;15.15;100.00
46087;BME280;31824;49.648;8.640;2023-05-21T00:36:20;99996.25;;;15.21;100.00
46087;BME280;31824;49.648;8.640;2023-05-21T00:39:24;99994.81;;;15.12;100.00
46087;BME280;31824;49.648;8.640;2023-05-21T00:42:26;99994.34;;;15.06;100.00
46087;BME280;31824;49.648;8.640;2023-05-21T00:45:28;99989.50;;;15.12;100.00
46087;BME280;31824;49.648;8.640;2023-05-21T00:48:30;99984.84;;;15.22;100.00
46087;BME280;31824;49.648;8.640;2023-05-21T00:51:34;99982.09;;;15.20;100.00
46087;BME280;31824;49.648;8.640;2023-05-21T00:54:36;99980.16;;;15.17;100.00
46087;BME280;31824;49.648;8.640;2023-05-21T00:57:38;99979.94;;;15.14;100.00
46087;BME280;31824;49.648;8.640;2023-05-21T01:00:40;99972.00;;;15.14;100.00
46087;BME280;31824;49.648;8.640;2023-05-21T01:03:43;99983.88;;;15.08;100.00
46087;BME280;31824;49.648;8.640;2023-05-21T01:06:47;99992.41;;;15.03;100.00
46087;BME280;31824;49.648;8.640;2023-05-21T01:09:48;99988.16;;;15.06;100.00
46087;BME280;31824;49.648;8.640;2023-05-21T01:12:51;99986.31;;;15.05;100.00
46087;BME280;31824;49.648;8.640;2023-05-21T01:16:01;99977.22;;;15.01;100.00
46087;BME280;31824;49.648;8.640;2023-05-21T01:19:05;99982.53;;;15.01;100.00
46087;BME280;31824;49.648;8.640;2023-05-21T01:22:12;99977.72;;;14.95;100.00
46087;BME280;31824;49.648;8.640;2023-05-21T01:25:16;99961.94;;;14.97;100.00
46087;BME280;31824;49.648;8.640;2023-05-21T01:28:19;99976.22;;;14.99;100.00
46087;BME280;31824;49.648;8.640;2023-05-21T01:31:26;99973.72;;;14.89;100.00
46087;BME280;31824;49.648;8.640;2023-05-21T01:34:33;99963.66;;;15.08;100.00
46087;BME280;31824;49.648;8.640;2023-05-21T01:37:43;99962.28;;;15.01;100.00
46087;BME280;31824;49.648;8.640;2023-05-21T01:40:51;99953.28;;;15.11;100.00
46087;BME280;31824;49.648;8.640;2023-05-21T01:43:55;99954.63;;;15.18;100.00
46087;BME280;31824;49.648;8.640;2023-05-21T01:46:58;99958.72;;;15.01;100.00
46087;BME280;31824;49.648;8.640;2023-05-21T01:50:01;99952.41;;;14.99;100.00
46087;BME280;31824;49.648;8.640;2023-05-21T01:53:04;99957.47;;;14.96;100.00
46087;BME280;31824;49.648;8.640;2023-05-21T01:56:08;99962.00;;;14.85;100.00
46087;BME280;31824;49.648;8.640;2023-05-21T01:59:09;99965.22;;;14.81;100.00
46087;BME280;31824;49.648;8.640;2023-05-21T02:02:12;99960.28;;;14.85;100.00
46087;BME280;31824;49.648;8.640;2023-05-21T02:05:14;99958.88;;;14.91;100.00
46087;BME280;31824;49.648;8.640;2023-05-21T02:08:16;99955.38;;;14.78;100.00
46087;BME280;31824;49.648;8.640;2023-05-21T02:11:21;99960.75;;;14.80;100.00
46087;BME280;31824;49.648;8.640;2023-05-21T02:14:23;99959.03;;;14.80;100.00
46087;BME280;31824;49.648;8.640;2023-05-21T02:17:30;99953.84;;;14.82;100.00
46087;BME280;31824;49.648;8.640;2023-05-21T02:20:34;99956.38;;;14.80;100.00
46087;BME280;31824;49.648;8.640;2023-05-21T02:23:37;99957.53;;;14.84;100.00
46087;BME280;31824;49.648;8.640;2023-05-21T02:26:40;99952.56;;;14.89;100.00
46087;BME280;31824;49.648;8.640;2023-05-21T02:29:43;99945.56;;;14.89;100.00
46087;BME280;31824;49.648;8.640;2023-05-21T02:32:44;99965.69;;;14.87;100.00
46087;BME280;31824;49.648;8.640;2023-05-21T02:35:46;99959.13;;;14.82;100.00
46087;BME280;31824;49.648;8.640;2023-05-21T02:38:48;99953.53;;;14.77;100.00
46087;BME280;31824;49.648;8.640;2023-05-21T02:41:51;99950.09;;;14.66;100.00
46087;BME280;31824;49.648;8.640;2023-05-21T02:44:53;99947.91;;;14.61;100.00
46087;BME280;31824;49.648;8.640;2023-05-21T02:47:56;99943.78;;;14.64;100.00
46087;BME280;31824;49.648;8.640;2023-05-21T02:50:58;99957.44;;;14.59;100.00
46087;BME280;31824;49.648;8.640;2023-05-21T02:54:00;99947.34;;;14.53;100.00
46087;BME280;31824;49.648;8.640;2023-05-21T02:57:04;99950.47;;;14.47;100.00
46087;BME280;31824;49.648;8.640;2023-05-21T03:00:07;99948.84;;;14.49;100.00
46087;BME280;31824;49.648;8.640;2023-05-21T03:03:11;99945.50;;;14.52;100.00
46087;BME280;31824;49.648;8.640;2023-05-21T03:06:14;99948.03;;;14.50;100.00
46087;BME280;31824;49.648;8.640;2023-05-21T03:09:16;99941.16;;;14.52;100.00
46087;BME280;31824;49.648;8.640;2023-05-21T03:12:20;99942.31;;;14.44;100.00
46087;BME280;31824;49.648;8.640;2023-05-21T03:15:22;99936.09;;;14.44;100.00
46087;BME280;31824;49.648;8.640;2023-05-21T03:18:24;99934.81;;;14.62;100.00
46087;BME280;31824;49.648;8.640;2023-05-21T03:21:26;99935.19;;;14.55;100.00
46087;BME280;31824;49.648;8.640;2023-05-21T03:24:30;99933.91;;;14.50;100.00
46087;BME280;31824;49.648;8.640;2023-05-21T03:27:36;99934.41;;;14.44;100.00
46087;BME280;31824;49.648;8.640;2023-05-21T03:30:42;99928.06;;;14.42;100.00
46087;BME280;31824;49.648;8.640;2023-05-21T03:34:06;99930.50;;;14.39;100.00
46087;BME280;31824;49.648;8.640;2023-05-21T03:37:09;99936.84;;;14.29;100.00
46087;BME280;31824;49.648;8.640;2023-05-21T03:40:12;99930.38;;;14.38;100.00
46087;BME280;31824;49.648;8.640;2023-05-21T03:43:16;99936.00;;;14.30;100.00
46087;BME280;31824;49.648;8.640;2023-05-21T03:46:19;99934.63;;;14.24;100.00
46087;BME280;31824;49.648;8.640;2023-05-21T03:49:21;99940.97;;;14.26;100.00
46087;BME280;31824;49.648;8.640;2023-05-21T03:52:25;99941.06;;;14.39;100.00
46087;BME280;31824;49.648;8.640;2023-05-21T03:55:27;99941.41;;;14.32;100.00
46087;BME280;31824;49.648;8.640;2023-05-21T03:58:31;99942.81;;;14.27;100.00
46087;BME280;31824;49.648;8.640;2023-05-21T04:01:33;99947.50;;;14.31;100.00
46087;BME280;31824;49.648;8.640;2023-05-21T04:04:35;99947.31;;;14.16;100.00
46087;BME280;31824;49.648;8.640;2023-05-21T04:07:38;99951.31;;;14.23;100.00
46087;BME280;31824;49.648;8.640;2023-05-21T04:10:40;99944.66;;;14.16;100.00
46087;BME280;31824;49.648;8.640;2023-05-21T04:13:44;99949.47;;;14.22;100.00
46087;BME280;31824;49.648;8.640;2023-05-21T04:16:46;99949.25;;;14.18;100.00
46087;BME280;31824;49.648;8.640;2023-05-21T04:19:49;99956.97;;;14.04;100.00
46087;BME280;31824;49.648;8.640;2023-05-21T04:22:52;99944.44;;;14.01;100.00
46087;BME280;31824;49.648;8.640;2023-05-21T04:25:54;99950.53;;;14.00;100.00
46087;BME280;31824;49.648;8.640;2023-05-21T04:28:57;99959.13;;;14.09;100.00
46087;BME280;31824;49.648;8.640;2023-05-21T04:32:00;99965.22;;;14.08;100.00
46087;BME280;31824;49.648;8.640;2023-05-21T04:35:04;99955.81;;;14.00;100.00
46087;BME280;31824;49.648;8.640;2023-05-21T04:38:07;99957.75;;;14.02;100.00
46087;BME280;31824;49.648;8.640;2023-05-21T04:41:09;99967.50;;;14.15;100.00
46087;BME280;31824;49.648;8.640;2023-05-21T04:44:12;99960.94;;;14.22;100.00
46087;BME280;31824;49.648;8.640;2023-05-21T04:47:17;99954.66;;;14.20;100.00
46087;BME280;31824;49.648;8.640;2023-05-21T04:50:19;99963.00;;;14.38;100.00
46087;BME280;31824;49.648;8.640;2023-05-21T04:53:22;99961.53;;;14.30;100.00
46087;BME280;31824;49.648;8.640;2023-05-21T04:56:27;99954.97;;;14.37;100.00
46087;BME280;31824;49.648;8.640;2023-05-21T04:59:31;99953.69;;;14.31;100.00
46087;BME280;31824;49.648;8.640;2023-05-21T05:02:33;99956.44;;;14.45;100.00
46087;BME280;31824;49.648;8.640;2023-05-21T05:05:35;99957.25;;;14.44;100.00
46087;BME280;31824;49.648;8.640;2023-05-21T05:08:37;99962.88;;;14.48;100.00
46087;BME280;31824;49.648;8.640;2023-05-21T05:11:39;99955.00;;;14.62;100.00
46087;BME280;31824;49.648;8.640;2023-05-21T05:14:42;99956.66;;;14.72;100.00
46087;BME280;31824;49.648;8.640;2023-05-21T05:17:44;99953.63;;;14.79;100.00
46087;BME280;31824;49.648;8.640;2023-05-21T05:20:49;99960.88;;;14.81;100.00
46087;BME280;31824;49.648;8.640;2023-05-21T05:23:51;99953.16;;;14.84;100.00
46087;BME280;31824;49.648;8.640;2023-05-21T05:26:56;99955.25;;;15.02;100.00
46087;BME280;31824;49.648;8.640;2023-05-21T05:29:59;99948.59;;;15.07;100.00
46087;BME280;31824;49.648;8.640;2023-05-21T05:33:01;99948.63;;;15.21;100.00
46087;BME280;31824;49.648;8.640;2023-05-21T05:36:04;99956.78;;;15.24;100.00
46087;BME280;31824;49.648;8.640;2023-05-21T05:39:06;99958.34;;;15.08;100.00
46087;BME280;31824;49.648;8.640;2023-05-21T05:42:08;99952.13;;;15.33;100.00
46087;BME280;31824;49.648;8.640;2023-05-21T05:45:11;99952.28;;;15.23;100.00
46087;BME280;31824;49.648;8.640;2023-05-21T05:48:14;99953.50;;;15.53;100.00
46087;BME280;31824;49.648;8.640;2023-05-21T05:51:17;99956.97;;;15.52;100.00
46087;BME280;31824;49.648;8.640;2023-05-21T05:54:19;99955.84;;;15.62;100.00
46087;BME280;31824;49.648;8.640;2023-05-21T05:57:21;99954.22;;;15.64;100.00
46087;BME280;31824;49.648;8.640;2023-05-21T06:00:27;99958.06;;;15.94;100.00
46087;BME280;31824;49.648;8.640;2023-05-21T06:03:32;99967.94;;;15.83;100.00
46087;BME280;31824;49.648;8.640;2023-05-21T06:06:40;99963.19;;;15.66;100.00
46087;BME280;31824;49.648;8.640;2023-05-21T06:09:43;99960.66;;;15.67;100.00
46087;BME280;31824;49.648;8.640;2023-05-21T06:12:45;99964.84;;;15.77;100.00
46087;BME280;31824;49.648;8.640;2023-05-21T06:15:49;99962.19;;;15.77;100.00
46087;BME280;31824;49.648;8.640;2023-05-21T06:18:52;99965.69;;;15.76;100.00
46087;BME280;31824;49.648;8.640;2023-05-21T06:21:54;99969.94;;;15.74;100.00
46087;BME280;31824;49.648;8.640;2023-05-21T06:24:56;99967.47;;;15.77;100.00
46087;BME280;31824;49.648;8.640;2023-05-21T06:27:59;99968.94;;;15.72;100.00
46087;BME280;31824;49.648;8.640;2023-05-21T06:31:04;99970.41;;;15.80;100.00
46087;BME280;31824;49.648;8.640;2023-05-21T06:34:08;99965.41;;;15.85;100.00
46087;BME280;31824;49.648;8.640;2023-05-21T06:37:11;99967.34;;;15.88;100.00
46087;BME280;31824;49.648;8.640;2023-05-21T06:40:13;99967.03;;;15.96;100.00
46087;BME280;31824;49.648;8.640;2023-05-21T06:43:15;99977.25;;;16.03;100.00
46087;BME280;31824;49.648;8.640;2023-05-21T06:46:37;99974.38;;;16.14;100.00
46087;BME280;31824;49.648;8.640;2023-05-21T06:49:41;99968.56;;;16.19;100.00
46087;BME280;31824;49.648;8.640;2023-05-21T06:52:44;99976.22;;;16.28;100.00
46087;BME280;31824;49.648;8.640;2023-05-21T06:55:46;99975.09;;;16.38;100.00
46087;BME280;31824;49.648;8.640;2023-05-21T06:59:08;99974.97;;;16.50;100.00
46087;BME280;31824;49.648;8.640;2023-05-21T07:02:12;99984.22;;;16.70;100.00
46087;BME280;31824;49.648;8.640;2023-05-21T07:05:14;99981.06;;;16.89;100.00
46087;BME280;31824;49.648;8.640;2023-05-21T07:08:17;99973.56;;;16.97;100.00
46087;BME280;31824;49.648;8.640;2023-05-21T07:11:22;99978.19;;;17.14;100.00
46087;BME280;31824;49.648;8.640;2023-05-21T07:14:29;99974.00;;;17.18;100.00
46087;BME280;31824;49.648;8.640;2023-05-21T07:17:32;99972.09;;;17.30;100.00
46087;BME280;31824;49.648;8.640;2023-05-21T07:20:34;99973.50;;;17.53;100.00
46087;BME280;31824;49.648;8.640;2023-05-21T07:23:39;99968.56;;;17.75;100.00
46087;BME280;31824;49.648;8.640;2023-05-21T07:26:42;99970.31;;;17.74;100.00
46087;BME280;31824;49.648;8.640;2023-05-21T07:29:45;99970.59;;;17.79;100.00
46087;BME280;31824;49.648;8.640;2023-05-21T07:32:49;99974.81;;;17.90;100.00
46087;BME280;31824;49.648;8.640;2023-05-21T07:35:51;99984.38;;;18.01;100.00
46087;BME280;31824;49.648;8.640;2023-05-21T07:38:54;99989.13;;;18.07;100.00
46087;BME280;31824;49.648;8.640;2023-05-21T07:41:56;99979.41;;;18.22;100.00
46087;BME280;31824;49.648;8.640;2023-05-21T07:44:58;99977.78;;;18.41;100.00
46087;BME280;31824;49.648;8.640;2023-05-21T07:48:02;99970.50;;;18.22;100.00
46087;BME280;31824;49.648;8.640;2023-05-21T07:51:06;99974.69;;;18.48;100.00
46087;BME280;31824;49.648;8.640;2023-05-21T07:54:09;99972.31;;;18.69;100.00
46087;BME280;31824;49.648;8.640;2023-05-21T07:57:11;99974.22;;;18.72;100.00
46087;BME280;31824;49.648;8.640;2023-05-21T08:00:41;99975.63;;;18.97;100.00
46087;BME280;31824;49.648;8.640;2023-05-21T08:03:46;99973.03;;;18.98;100.00
46087;BME280;31824;49.648;8.640;2023-05-21T08:06:48;99972.78;;;19.27;100.00
46087;BME280;31824;49.648;8.640;2023-05-21T08:09:50;99971.97;;;19.11;100.00
46087;BME280;31824;49.648;8.640;2023-05-21T08:12:54;99965.00;;;19.30;100.00
46087;BME280;31824;49.648;8.640;2023-05-21T08:15:56;99969.09;;;19.57;100.00
46087;BME280;31824;49.648;8.640;2023-05-21T08:19:02;99961.38;;;19.46;100.00
46087;BME280;31824;49.648;8.640;2023-05-21T08:22:04;99967.91;;;19.69;100.00
46087;BME280;31824;49.648;8.640;2023-05-21T08:25:11;99962.91;;;19.75;100.00
46087;BME280;31824;49.648;8.640;2023-05-21T08:28:13;99960.31;;;19.77;100.00
46087;BME280;31824;49.648;8.640;2023-05-21T08:31:16;99957.00;;;19.81;100.00
46087;BME280;31824;49.648;8.640;2023-05-21T08:34:20;99963.78;;;19.92;100.00
46087;BME280;31824;49.648;8.640;2023-05-21T08:37:32;99960.91;;;19.87;100.00
46087;BME280;31824;49.648;8.640;2023-05-21T08:40:41;99959.00;;;20.03;100.00
46087;BME280;31824;49.648;8.640;2023-05-21T08:43:44;99958.72;;;20.15;100.00
46087;BME280;31824;49.648;8.640;2023-05-21T08:46:52;99959.47;;;20.12;100.00
46087;BME280;31824;49.648;8.640;2023-05-21T08:49:57;99956.28;;;20.19;100.00
46087;BME280;31824;49.648;8.640;2023-05-21T08:53:00;99961.91;;;20.44;100.00
46087;BME280;31824;49.648;8.640;2023-05-21T08:56:16;99958.94;;;20.55;100.00
46087;BME280;31824;49.648;8.640;2023-05-21T08:59:36;99954.78;;;20.80;100.00
46087;BME280;31824;49.648;8.640;2023-05-21T09:02:45;99955.81;;;21.02;100.00
46087;BME280;31824;49.648;8.640;2023-05-21T09:05:50;99957.34;;;20.97;100.00
46087;BME280;31824;49.648;8.640;2023-05-21T09:08:53;99949.75;;;21.06;100.00
46087;BME280;31824;49.648;8.640;2023-05-21T09:12:06;99951.31;;;21.40;100.00
46087;BME280;31824;49.648;8.640;2023-05-21T09:15:10;99946.84;;;21.40;100.00
46087;BME280;31824;49.648;8.640;2023-05-21T09:18:13;99948.69;;;21.41;100.00
46087;BME280;31824;49.648;8.640;2023-05-21T09:21:25;99951.44;;;21.43;100.00
46087;BME280;31824;49.648;8.640;2023-05-21T09:24:34;99958.19;;;21.35;100.00
46087;BME280;31824;49.648;8.640;2023-05-21T09:27:38;99958.97;;;21.32;100.00
46087;BME280;31824;49.648;8.640;2023-05-21T09:30:44;99955.81;;;21.41;100.00
46087;BME280;31824;49.648;8.640;2023-05-21T09:33:46;99958.47;;;21.41;100.00
46087;BME280;31824;49.648;8.640;2023-05-21T09:36:51;99954.53;;;21.52;100.00
46087;BME280;31824;49.648;8.640;2023-05-21T09:39:56;99947.94;;;21.64;100.00
46087;BME280;31824;49.648;8.640;2023-05-21T09:42:58;99948.94;;;21.87;100.00
46087;BME280;31824;49.648;8.640;2023-05-21T09:46:00;99953.38;;;22.07;100.00
46087;BME280;31824;49.648;8.640;2023-05-21T09:49:06;99952.44;;;22.28;100.00
46087;BME280;31824;49.648;8.640;2023-05-21T09:52:09;99948.28;;;22.57;100.00
46087;BME280;31824;49.648;8.640;2023-05-21T09:55:12;99950.53;;;22.92;100.00
46087;BME280;31824;49.648;8.640;2023-05-21T09:58:14;99944.38;;;22.95;100.00
46087;BME280;31824;49.648;8.640;2023-05-21T10:01:18;99940.22;;;23.25;100.00
46087;BME280;31824;49.648;8.640;2023-05-21T10:04:21;99943.50;;;23.18;100.00
46087;BME280;31824;49.648;8.640;2023-05-21T10:07:31;99942.31;;;23.58;100.00
46087;BME280;31824;49.648;8.640;2023-05-21T10:10:36;99941.00;;;23.73;100.00
46087;BME280;31824;49.648;8.640;2023-05-21T10:13:43;99947.81;;;23.63;100.00
46087;BME280;31824;49.648;8.640;2023-05-21T10:16:46;99940.75;;;23.65;100.00
46087;BME280;31824;49.648;8.640;2023-05-21T10:19:49;99944.50;;;23.70;100.00
46087;BME280;31824;49.648;8.640;2023-05-21T10:22:53;99940.31;;;23.53;100.00
46087;BME280;31824;49.648;8.640;2023-05-21T10:25:56;99928.19;;;23.64;100.00
46087;BME280;31824;49.648;8.640;2023-05-21T10:28:59;99940.16;;;23.74;100.00
46087;BME280;31824;49.648;8.640;2023-05-21T10:32:04;99934.34;;;23.36;100.00
46087;BME280;31824;49.648;8.640;2023-05-21T10:35:08;99931.53;;;23.83;100.00
46087;BME280;31824;49.648;8.640;2023-05-21T10:38:11;99933.81;;;23.46;100.00
46087;BME280;31824;49.648;8.640;2023-05-21T10:41:14;99928.78;;;24.07;100.00
46087;BME280;31824;49.648;8.640;2023-05-21T10:44:26;99930.09;;;23.67;100.00
46087;BME280;31824;49.648;8.640;2023-05-21T10:47:59;99926.31;;;24.13;100.00
46087;BME280;31824;49.648;8.640;2023-05-21T10:51:19;99924.41;;;24.09;100.00
46087;BME280;31824;49.648;8.640;2023-05-21T10:58:13;99912.97;;;24.43;100.00
46087;BME280;31824;49.648;8.640;2023-05-21T11:01:21;99923.59;;;24.39;100.00
46087;BME280;31824;49.648;8.640;2023-05-21T11:04:25;99909.94;;;24.33;100.00
46087;BME280;31824;49.648;8.640;2023-05-21T11:07:49;99907.56;;;24.42;100.00
46087;BME280;31824;49.648;8.640;2023-05-21T11:10:53;99899.09;;;24.86;100.00
46087;BME280;31824;49.648;8.640;2023-05-21T11:13:58;99898.28;;;25.19;100.00
46087;BME280;31824;49.648;8.640;2023-05-21T11:17:01;99888.56;;;24.93;100.00
46087;BME280;31824;49.648;8.640;2023-05-21T11:20:05;99889.44;;;24.92;100.00
46087;BME280;31824;49.648;8.640;2023-05-21T11:23:10;99888.38;;;25.18;100.00
46087;BME280;31824;49.648;8.640;2023-05-21T11:26:14;99891.56;;;25.04;100.00
46087;BME280;31824;49.648;8.640;2023-05-21T11:29:15;99891.44;;;25.00;100.00
46087;BME280;31824;49.648;8.640;2023-05-21T11:32:17;99883.75;;;25.44;100.00
46087;BME280;31824;49.648;8.640;2023-05-21T11:35:21;99888.97;;;25.73;100.00
46087;BME280;31824;49.648;8.640;2023-05-21T11:38:25;99886.41;;;25.76;100.00
46087;BME280;31824;49.648;8.640;2023-05-21T11:41:29;99884.00;;;25.88;100.00
46087;BME280;31824;49.648;8.640;2023-05-21T11:44:37;99881.75;;;25.70;100.00
46087;BME280;31824;49.648;8.640;2023-05-21T11:47:40;99880.34;;;25.86;100.00
46087;BME280;31824;49.648;8.640;2023-05-21T11:50:44;99878.59;;;25.87;100.00
46087;BME280;31824;49.648;8.640;2023-05-21T11:53:47;99876.31;;;26.02;100.00
46087;BME280;31824;49.648;8.640;2023-05-21T11:56:50;99878.22;;;26.44;100.00
46087;BME280;31824;49.648;8.640;2023-05-21T11:59:53;99876.66;;;26.56;100.00
46087;BME280;31824;49.648;8.640;2023-05-21T12:02:55;99885.59;;;26.93;100.00
46087;BME280;31824;49.648;8.640;2023-05-21T12:06:03;99891.91;;;26.95;100.00
46087;BME280;31824;49.648;8.640;2023-05-21T12:09:06;99886.16;;;26.76;100.00
46087;BME280;31824;49.648;8.640;2023-05-21T12:12:12;99895.09;;;27.18;100.00
46087;BME280;31824;49.648;8.640;2023-05-21T12:15:16;99900.22;;;27.06;100.00
46087;BME280;31824;49.648;8.640;2023-05-21T12:18:18;99884.25;;;26.72;100.00
46087;BME280;31824;49.648;8.640;2023-05-21T12:21:21;99877.41;;;26.88;100.00
46087;BME280;31824;49.648;8.640;2023-05-21T12:24:23;99887.91;;;27.65;100.00
46087;BME280;31824;49.648;8.640;2023-05-21T12:27:26;99885.28;;;27.22;100.00
46087;BME280;31824;49.648;8.640;2023-05-21T12:30:28;99891.16;;;27.45;100.00
46087;BME280;31824;49.648;8.640;2023-05-21T12:33:33;99883.44;;;27.19;100.00
46087;BME280;31824;49.648;8.640;2023-05-21T12:36:34;99897.56;;;27.50;100.00
46087;BME280;31824;49.648;8.640;2023-05-21T12:39:39;99889.66;;;27.61;100.00
46087;BME280;31824;49.648;8.640;2023-05-21T12:42:43;99878.66;;;27.49;100.00
46087;BME280;31824;49.648;8.640;2023-05-21T12:45:45;99882.16;;;27.96;100.00
46087;BME280;31824;49.648;8.640;2023-05-21T12:48:47;99883.94;;;27.44;100.00
46087;BME280;31824;49.648;8.640;2023-05-21T12:51:49;99881.81;;;27.75;100.00
46087;BME280;31824;49.648;8.640;2023-05-21T12:54:53;99875.34;;;27.67;100.00
46087;BME280;31824;49.648;8.640;2023-05-21T12:58:03;99877.72;;;27.48;100.00
46087;BME280;31824;49.648;8.640;2023-05-21T13:01:06;99890.59;;;27.65;100.00
46087;BME280;31824;49.648;8.640;2023-05-21T13:04:29;99872.00;;;27.80;100.00
46087;BME280;31824;49.648;8.640;2023-05-21T13:07:32;99873.66;;;27.72;100.00
46087;BME280;31824;49.648;8.640;2023-05-21T13:10:34;99871.81;;;27.69;100.00
46087;BME280;31824;49.648;8.640;2023-05-21T13:13:38;99869.78;;;28.08;100.00
46087;BME280;31824;49.648;8.640;2023-05-21T13:16:40;99873.94;;;28.44;100.00
46087;BME280;31824;49.648;8.640;2023-05-21T13:23:04;99861.00;;;28.84;100.00
46087;BME280;31824;49.648;8.640;2023-05-21T13:26:10;99873.09;;;28.46;100.00
46087;BME280;31824;49.648;8.640;2023-05-21T13:29:13;99864.16;;;28.52;100.00
46087;BME280;31824;49.648;8.640;2023-05-21T13:32:15;99869.38;;;29.06;100.00
46087;BME280;31824;49.648;8.640;2023-05-21T13:35:17;99872.66;;;28.20;100.00
46087;BME280;31824;49.648;8.640;2023-05-21T13:38:19;99872.41;;;28.63;100.00
46087;BME280;31824;49.648;8.640;2023-05-21T13:41:21;99867.75;;;28.53;100.00
46087;BME280;31824;49.648;8.640;2023-05-21T13:44:24;99880.09;;;28.98;100.00
46087;BME280;31824;49.648;8.640;2023-05-21T13:47:26;99862.66;;;28.13;100.00
46087;BME280;31824;49.648;8.640;2023-05-21T13:50:28;99875.44;;;28.85;100.00
46087;BME280;31824;49.648;8.640;2023-05-21T13:53:30;99882.38;;;28.66;100.00
46087;BME280;31824;49.648;8.640;2023-05-21T13:56:31;99867.28;;;28.22;100.00
46087;BME280;31824;49.648;8.640;2023-05-21T13:59:36;99867.13;;;28.71;100.00
46087;BME280;31824;49.648;8.640;2023-05-21T14:02:39;99875.63;;;29.02;100.00
46087;BME280;31824;49.648;8.640;2023-05-21T14:05:41;99871.19;;;29.07;100.00
46087;BME280;31824;49.648;8.640;2023-05-21T14:08:43;99871.06;;;28.32;100.00
46087;BME280;31824;49.648;8.640;2023-05-21T14:11:46;99871.97;;;28.32;100.00
46087;BME280;31824;49.648;8.640;2023-05-21T14:14:49;99873.34;;;28.65;100.00
46087;BME280;31824;49.648;8.640;2023-05-21T14:17:51;99860.06;;;28.82;100.00
46087;BME280;31824;49.648;8.640;2023-05-21T14:20:54;99871.34;;;29.19;100.00
46087;BME280;31824;49.648;8.640;2023-05-21T14:23:56;99863.28;;;28.55;100.00
46087;BME280;31824;49.648;8.640;2023-05-21T14:26:58;99861.97;;;28.25;100.00
46087;BME280;31824;49.648;8.640;2023-05-21T14:30:01;99863.13;;;28.44;100.00
46087;BME280;31824;49.648;8.640;2023-05-21T14:33:03;99866.06;;;29.30;100.00
46087;BME280;31824;49.648;8.640;2023-05-21T14:36:05;99874.81;;;29.09;100.00
46087;BME280;31824;49.648;8.640;2023-05-21T14:39:07;99864.94;;;28.45;100.00
46087;BME280;31824;49.648;8.640;2023-05-21T14:42:09;99864.34;;;28.65;100.00
46087;BME280;31824;49.648;8.640;2023-05-21T14:45:12;99871.06;;;28.97;100.00
46087;BME280;31824;49.648;8.640;2023-05-21T14:48:34;99868.50;;;29.10;100.00
46087;BME280;31824;49.648;8.640;2023-05-21T14:51:36;99868.97;;;28.75;100.00
46087;BME280;31824;49.648;8.640;2023-05-21T14:54:38;99874.34;;;29.47;100.00
46087;BME280;31824;49.648;8.640;2023-05-21T14:57:40;99861.53;;;29.26;100.00
46087;BME280;31824;49.648;8.640;2023-05-21T15:00:44;99855.13;;;29.24;100.00
46087;BME280;31824;49.648;8.640;2023-05-21T15:03:46;99856.94;;;29.23;100.00
46087;BME280;31824;49.648;8.640;2023-05-21T15:06:48;99851.56;;;28.56;100.00
46087;BME280;31824;49.648;8.640;2023-05-21T15:09:51;99846.81;;;28.36;100.00
46087;BME280;31824;49.648;8.640;2023-05-21T15:12:53;99853.97;;;28.34;100.00
46087;BME280;31824;49.648;8.640;2023-05-21T15:15:56;99840.94;;;28.07;100.00
46087;BME280;31824;49.648;8.640;2023-05-21T15:19:01;99852.50;;;28.00;100.00
46087;BME280;31824;49.648;8.640;2023-05-21T15:22:03;99840.56;;;27.85;100.00
46087;BME280;31824;49.648;8.640;2023-05-21T15:25:06;99842.84;;;27.60;100.00
46087;BME280;31824;49.648;8.640;2023-05-21T15:28:08;99841.19;;;27.67;100.00
46087;BME280;31824;49.648;8.640;2023-05-21T15:31:11;99840.22;;;27.63;100.00
46087;BME280;31824;49.648;8.640;2023-05-21T15:34:13;99831.59;;;27.36;100.00
46087;BME280;31824;49.648;8.640;2023-05-21T15:37:15;99836.06;;;26.88;100.00
46087;BME280;31824;49.648;8.640;2023-05-21T15:40:18;99827.00;;;26.84;100.00
46087;BME280;31824;49.648;8.640;2023-05-21T15:43:20;99827.34;;;27.01;100.00
46087;BME280;31824;49.648;8.640;2023-05-21T15:46:23;99824.84;;;27.10;100.00
46087;BME280;31824;49.648;8.640;2023-05-21T15:49:25;99820.50;;;27.19;100.00
46087;BME280;31824;49.648;8.640;2023-05-21T15:52:27;99821.53;;;27.25;100.00
46087;BME280;31824;49.648;8.640;2023-05-21T15:55:30;99826.63;;;27.10;100.00
46087;BME280;31824;49.648;8.640;2023-05-21T16:02:08;99823.25;;;27.22;100.00
46087;BME280;31824;49.648;8.640;2023-05-21T16:05:10;99827.66;;;27.18;100.00
46087;BME280;31824;49.648;8.640;2023-05-21T16:08:12;99834.28;;;27.36;100.00
46087;BME280;31824;49.648;8.640;2023-05-21T16:11:16;99832.38;;;27.28;100.00
46087;BME280;31824;49.648;8.640;2023-05-21T16:14:19;99825.59;;;27.03;100.00